Nesenie raksti

Ziņas

Par Gliding.lv

Gliding.lv ir interneta vietne par planieriem un planierismu. Šeit būs atrodama informācija par iespējām pamēģināt, iesaistīties un organizēt planierisma aktivitātes. Izmanto Gliding.lv forumu, ja Tev ir kāda tēma diskusijai vai jautājums. Gliding.lv merķis ir informēt un apvienot planierisma interesentus, nodrošinot un apmainoties ar aktuālāko un arī bijušo. Lidojam!

Laiks Rīgā
1°
light snow
mitrums: 51%
vējš: 3m/s R
3°
Ses
1°
Svē
-3°
Pir
-1°
Otr
Meteo-dati no OpenWeatherMap

METAR

EVRA 051150Z 27006KT 210V340 9999 SCT035 01/M08 Q1016 R36/190095 NOSIG

EVLA 051150Z AUTO 33010KT 290V020 9999 FEW031/// 02/M05 Q1018

EVVA 051150Z AUTO 34010KT 9999 FEW019 00/M00 Q1017

Nesenie raksti

Pāriet uz rīkjoslu